Woody, CA

11:30 PM PST on November 22, 2014 (GMT -0800)
Porterville Municipal | Change Station
CLOSE
Current Station
Airport
Location: Porterville,
Elevation: 443 ft
Nearby Weather Stations
Active Advisory: Wind Advisory

Elev 443 ft 36.03 °N, 119.06 °W | Updated 15 minutes ago

Mostly Cloudy
Mostly Cloudy
55 °F
Feels Like 55 °F
N
4
Wind Variable Wind from WNW

Today
High -- | Low -- °F
--% Chance of Precip.
Yesterday
High -- | Low -- °F
Precip. -- in
6:38 AM 4:44 PM
New Moon, 1% visible
Pressure 30.17 in
Visibility 7.0 miles
Clouds Overcast 1900 ft
Dew Point 50 °F
Humidity 82%
Rainfall 0.00 in
Snow Depth Not available.
UV 0 out of 12
Pollen 2.80 out of 12
Air Quality Not available.
Flu Activity Not available.
METAR KPTV 230715Z AUTO 29003KT 7SM OVC019 13/10 A3017 RMK AO1

More Conditions Fewer Conditions

Pressure 30.17 in
Visibility 7.0 miles
Clouds Overcast 1900 ft
Dew Point 50 °F
Humidity 82%
Rainfall 0.00 in
Snow Depth Not available.
UV 0 out of 12
Pollen 2.80 out of 12
Air Quality Not available.
Flu Activity Not available.
METAR KPTV 230715Z AUTO 29003KT 7SM OVC019 13/10 A3017 RMK AO1

More Conditions Fewer Conditions

10-Day Weather Forecast

Almanac

Astronomy

Nov. 22, 2014 Rise Set
Actual Time
Civil Twilight
Nautical Twilight
Astronomical Twilight
Moon
Length of Visible Light
Length of Day
Tomorrow will be .
, % of the Moon is Illuminated

Today's Extremes

State Highs State Lows

Community

WunderPhotos

Upload Photos

1,773,024 photos uploaded!

WunderBlogs® & News

Nearby

Air Quality

  Air Quality AQ Index Pollutant
Not available.

Snow Depth

Station Depth Elevation

Earthquake Activity

City Distance Mag. Time & Date
Minimum magnitude displayed is 2.5.

Coastal Water Temperatures

Place Temperature

Nearby Weather Stations